createdAt,value
2022-12-13T00:01:57.756Z,76.62
2022-12-13T00:04:25.852Z,76.79
2022-12-13T00:06:54.237Z,76.96
2022-12-13T00:09:23.678Z,77.11
2022-12-13T00:11:56.581Z,77.22
2022-12-13T00:14:24.714Z,77.24
2022-12-13T00:16:52.875Z,77.45
2022-12-13T00:19:21.944Z,77.42
2022-12-13T00:21:51.468Z,77.43
2022-12-13T00:24:21.128Z,77.54
2022-12-13T00:26:54.652Z,77.54
2022-12-13T00:29:22.663Z,77.65
2022-12-13T00:31:59.325Z,77.67
2022-12-13T00:34:23.504Z,77.51
2022-12-13T00:36:53.422Z,77.47
2022-12-13T00:39:21.036Z,77.58
2022-12-13T00:41:49.611Z,77.52
2022-12-13T00:44:19.935Z,77.25
2022-12-13T00:46:50.581Z,77.16
2022-12-13T00:49:19.437Z,77.23
2022-12-13T00:51:48.846Z,77.53
2022-12-13T00:54:16.963Z,77.64
2022-12-13T00:56:44.517Z,77.82
2022-12-13T00:59:15.387Z,77.81
2022-12-13T01:01:43.399Z,77.86
2022-12-13T01:04:11.578Z,77.82
2022-12-13T01:06:46.014Z,77.47
2022-12-13T01:09:21.494Z,77.58
2022-12-13T01:11:50.559Z,77.60
2022-12-13T01:14:19.085Z,77.55
2022-12-13T01:16:47.246Z,77.39
2022-12-13T01:19:15.183Z,77.61
2022-12-13T01:21:43.064Z,77.69
2022-12-13T01:24:10.856Z,77.81
2022-12-13T01:26:38.772Z,77.89
2022-12-13T01:29:06.690Z,77.90
2022-12-13T01:31:37.029Z,78.16
2022-12-13T01:34:06.613Z,78.04
2022-12-13T01:36:38.200Z,77.89
2022-12-13T01:39:14.420Z,77.97
2022-12-13T01:41:34.170Z,78.12
2022-12-13T01:44:04.993Z,78.41
2022-12-13T01:46:35.221Z,78.53
2022-12-13T01:49:20.002Z,78.71
2022-12-13T01:51:47.569Z,78.89
2022-12-13T01:54:21.304Z,79.00
2022-12-13T01:56:52.957Z,79.04
2022-12-13T01:59:23.178Z,79.14
2022-12-13T02:01:52.253Z,79.09
2022-12-13T02:04:28.344Z,79.09
2022-12-13T02:06:57.579Z,79.16
2022-12-13T02:09:26.196Z,79.08
2022-12-13T02:11:54.294Z,79.12
2022-12-13T02:14:22.074Z,79.19
2022-12-13T02:17:13.129Z,79.20
2022-12-13T02:20:01.508Z,79.20
2022-12-13T02:22:49.165Z,79.16
2022-12-13T02:26:09.532Z,79.28
2022-12-13T02:29:29.975Z,79.22
2022-12-13T02:32:01.737Z,79.39
2022-12-13T02:34:36.876Z,79.40
2022-12-13T02:37:26.026Z,79.26
2022-12-13T02:40:17.498Z,79.32
2022-12-13T02:43:23.843Z,79.42
2022-12-13T02:45:58.013Z,79.39
2022-12-13T02:48:30.077Z,79.53
2022-12-13T02:51:00.838Z,79.63
2022-12-13T02:53:29.847Z,79.67
2022-12-13T02:55:59.716Z,79.65
2022-12-13T02:58:33.216Z,79.68
2022-12-13T03:01:28.175Z,79.76
2022-12-13T03:04:08.602Z,79.82
2022-12-13T03:07:10.395Z,79.86
2022-12-13T03:09:52.197Z,79.98
2022-12-13T03:12:43.622Z,80.18
2022-12-13T03:15:18.945Z,80.18
2022-12-13T03:17:59.352Z,80.20
2022-12-13T03:20:29.197Z,80.28
2022-12-13T03:22:58.435Z,80.33
2022-12-13T03:25:32.047Z,80.28
2022-12-13T03:28:02.204Z,80.33
2022-12-13T03:30:32.085Z,80.44
2022-12-13T03:33:00.821Z,80.43
2022-12-13T03:35:34.171Z,80.39
2022-12-13T03:38:01.353Z,80.42
2022-12-13T03:40:30.717Z,80.43
2022-12-13T03:42:58.650Z,80.35
2022-12-13T03:45:26.311Z,80.38
2022-12-13T03:47:54.175Z,80.42
2022-12-13T03:50:26.481Z,80.43
2022-12-13T03:52:59.472Z,80.38
2022-12-13T03:55:28.425Z,80.51
2022-12-13T03:57:56.376Z,80.43
2022-12-13T04:00:25.704Z,80.47
2022-12-13T04:02:53.449Z,80.37
2022-12-13T04:05:21.057Z,80.40
2022-12-13T04:07:48.874Z,80.36
2022-12-13T04:10:26.276Z,80.44
2022-12-13T04:13:11.555Z,80.27
2022-12-13T04:15:39.924Z,80.33
2022-12-13T04:18:07.519Z,80.25
2022-12-13T04:20:35.551Z,80.23
2022-12-13T04:23:10.086Z,80.21
2022-12-13T04:25:35.995Z,80.25
2022-12-13T04:28:03.742Z,80.16
2022-12-13T04:30:31.430Z,80.17
2022-12-13T04:32:59.488Z,80.18
2022-12-13T04:35:27.289Z,80.14
2022-12-13T04:37:56.422Z,80.11
2022-12-13T04:40:24.244Z,80.24
2022-12-13T04:42:54.580Z,80.23
2022-12-13T04:45:22.722Z,80.38
2022-12-13T04:47:50.516Z,80.25
2022-12-13T04:50:18.153Z,80.18
2022-12-13T04:52:45.986Z,80.24
2022-12-13T04:55:14.090Z,80.16
2022-12-13T04:57:42.161Z,80.05
2022-12-13T05:00:15.185Z,80.07
2022-12-13T05:02:42.961Z,80.15
2022-12-13T05:05:11.786Z,79.88
2022-12-13T05:07:42.396Z,80.04
2022-12-13T05:10:11.085Z,80.25
2022-12-13T05:12:38.976Z,80.26
2022-12-13T05:15:07.435Z,80.34
2022-12-13T05:17:35.119Z,80.37
2022-12-13T05:20:03.579Z,80.42
2022-12-13T05:22:31.229Z,80.31
2022-12-13T05:25:02.149Z,80.25
2022-12-13T05:27:30.046Z,80.29
2022-12-13T05:30:03.345Z,80.29
2022-12-13T05:32:30.243Z,80.25
2022-12-13T05:37:44.439Z,80.07
2022-12-13T05:40:12.396Z,80.04
2022-12-13T05:42:41.093Z,80.08
2022-12-13T05:45:10.542Z,80.17
2022-12-13T05:47:38.578Z,80.15
2022-12-13T05:50:07.411Z,79.97
2022-12-13T05:52:35.597Z,80.04
2022-12-13T05:55:05.463Z,80.02
2022-12-13T05:57:34.132Z,79.99
2022-12-13T06:00:06.908Z,79.98
2022-12-13T06:02:41.262Z,79.85
2022-12-13T06:05:11.975Z,79.85
2022-12-13T06:07:53.649Z,79.79
2022-12-13T06:10:21.976Z,79.81
2022-12-13T06:12:49.425Z,79.77
2022-12-13T06:15:22.672Z,79.86
2022-12-13T06:17:47.174Z,79.90
2022-12-13T06:20:24.415Z,79.82
2022-12-13T06:22:47.059Z,79.78
2022-12-13T06:25:31.014Z,79.82
2022-12-13T06:27:45.379Z,79.74
2022-12-13T06:30:15.286Z,79.71
2022-12-13T06:32:44.126Z,79.60
2022-12-13T06:35:27.982Z,79.70
2022-12-13T06:37:43.895Z,79.92
2022-12-13T06:40:12.643Z,79.93
2022-12-13T06:42:40.397Z,79.59
2022-12-13T06:45:11.834Z,79.43
2022-12-13T06:47:41.808Z,79.27
2022-12-13T06:50:10.202Z,79.33
2022-12-13T06:52:46.685Z,79.47
2022-12-13T06:55:15.037Z,79.64
2022-12-13T06:57:44.516Z,79.84
2022-12-13T07:00:14.193Z,80.04
2022-12-13T07:02:44.545Z,80.16
2022-12-13T07:05:13.027Z,80.16
2022-12-13T07:07:44.790Z,80.08
2022-12-13T07:10:22.007Z,80.01
2022-12-13T07:12:47.502Z,80.10
2022-12-13T07:15:15.932Z,80.12
2022-12-13T07:17:44.441Z,80.01
2022-12-13T07:20:15.092Z,79.88
2022-12-13T07:22:55.093Z,79.92
2022-12-13T07:25:26.710Z,79.69
2022-12-13T07:28:02.075Z,79.72
2022-12-13T07:30:33.029Z,79.84
2022-12-13T07:33:02.834Z,79.54
2022-12-13T07:35:31.946Z,79.37
2022-12-13T07:38:01.283Z,79.53
2022-12-13T07:40:29.215Z,79.50
2022-12-13T07:42:57.188Z,79.45
2022-12-13T07:45:26.935Z,79.48
2022-12-13T07:47:54.779Z,79.42
2022-12-13T07:50:24.796Z,79.38
2022-12-13T07:52:53.700Z,79.37
2022-12-13T07:55:23.234Z,79.26
2022-12-13T07:57:53.114Z,79.10
2022-12-13T08:00:22.001Z,79.12
2022-12-13T08:02:50.086Z,78.76
2022-12-13T08:05:26.981Z,78.85
2022-12-13T08:07:48.400Z,78.74
2022-12-13T08:10:16.419Z,78.51
2022-12-13T08:12:45.335Z,78.65
2022-12-13T08:15:14.290Z,78.07
2022-12-13T08:17:42.208Z,77.86
2022-12-13T08:20:11.152Z,77.48
2022-12-13T08:22:39.689Z,77.12
2022-12-13T08:25:08.019Z,76.66
2022-12-13T08:27:36.191Z,76.10
2022-12-13T08:30:07.117Z,75.80
2022-12-13T08:32:34.720Z,75.65
2022-12-13T08:35:03.677Z,75.61
2022-12-13T08:37:31.674Z,75.58
2022-12-13T08:39:59.685Z,75.40
2022-12-13T08:42:27.592Z,74.52
2022-12-13T08:44:55.649Z,74.44
2022-12-13T08:47:26.536Z,74.94
2022-12-13T08:50:01.562Z,74.62
2022-12-13T08:52:39.504Z,74.66
2022-12-13T08:55:05.939Z,74.76
2022-12-13T08:57:36.884Z,74.83
2022-12-13T09:00:14.785Z,74.58
2022-12-13T09:02:42.915Z,74.66
2022-12-13T09:05:12.498Z,74.45
2022-12-13T09:07:40.624Z,74.15
2022-12-13T09:10:27.053Z,73.74
2022-12-13T09:12:44.960Z,73.83
2022-12-13T09:15:22.544Z,74.01
2022-12-13T09:17:42.879Z,74.16
2022-12-13T09:20:29.211Z,74.23
2022-12-13T09:22:45.448Z,74.03
2022-12-13T09:25:15.437Z,73.84
2022-12-13T09:27:44.972Z,73.59
2022-12-13T09:30:13.648Z,73.14
2022-12-13T09:32:44.084Z,72.79
2022-12-13T09:35:14.885Z,72.36
2022-12-13T09:37:45.912Z,72.72
2022-12-13T09:40:25.443Z,72.20
2022-12-13T09:43:08.294Z,71.97
2022-12-13T09:45:31.907Z,72.16
2022-12-13T09:47:54.135Z,72.33
2022-12-13T09:50:37.076Z,72.33
2022-12-13T09:53:05.732Z,72.76
2022-12-13T09:55:42.177Z,72.09
2022-12-13T09:58:24.540Z,72.16
2022-12-13T10:00:55.549Z,71.29
2022-12-13T10:03:25.401Z,71.80
2022-12-13T10:06:10.563Z,70.17
2022-12-13T10:08:44.554Z,70.81
2022-12-13T10:11:16.430Z,70.44
2022-12-13T10:14:09.769Z,69.75
2022-12-13T10:16:48.995Z,68.91
2022-12-13T10:19:29.439Z,69.10
2022-12-13T10:21:54.048Z,68.48
2022-12-13T10:24:37.407Z,68.73
2022-12-13T10:27:15.226Z,68.71
2022-12-13T10:30:08.014Z,68.70
2022-12-13T10:32:56.303Z,68.52
2022-12-13T10:35:28.853Z,68.13
2022-12-13T10:38:13.113Z,68.77
2022-12-13T10:40:47.977Z,68.93
2022-12-13T10:43:22.872Z,68.93
2022-12-13T10:46:00.120Z,67.95
2022-12-13T10:48:43.080Z,68.09
2022-12-13T10:51:13.954Z,68.53
2022-12-13T10:53:56.007Z,68.33
2022-12-13T10:56:41.266Z,67.97
2022-12-13T10:59:29.529Z,67.50
2022-12-13T11:01:57.307Z,67.87
2022-12-13T11:04:34.318Z,68.15
2022-12-13T11:07:21.896Z,67.42
2022-12-13T11:09:52.846Z,66.07
2022-12-13T11:12:27.550Z,65.88
2022-12-13T11:15:04.038Z,65.49
2022-12-13T11:17:36.820Z,65.52
2022-12-13T11:20:25.347Z,65.65
2022-12-13T11:23:04.344Z,65.22
2022-12-13T11:25:43.567Z,65.68
2022-12-13T11:28:55.489Z,66.11
2022-12-13T11:31:59.271Z,65.84
2022-12-13T11:34:50.382Z,66.09
2022-12-13T11:37:37.612Z,65.84
2022-12-13T11:40:27.479Z,65.52
2022-12-13T11:43:26.981Z,65.42
2022-12-13T11:46:01.864Z,65.74
2022-12-13T11:48:50.261Z,66.12
2022-12-13T11:51:23.792Z,66.01
2022-12-13T11:54:03.079Z,66.60
2022-12-13T11:56:35.365Z,66.52
2022-12-13T11:59:30.661Z,65.68
2022-12-13T12:02:26.045Z,64.79
2022-12-13T12:05:00.444Z,65.51
2022-12-13T12:07:34.958Z,65.36
2022-12-13T12:10:29.759Z,65.62
2022-12-13T12:13:05.568Z,65.62
2022-12-13T12:15:41.849Z,65.29
2022-12-13T12:18:16.014Z,65.30
2022-12-13T12:21:14.325Z,65.14
2022-12-13T12:24:03.391Z,65.21
2022-12-13T12:26:58.059Z,64.94
2022-12-13T12:29:51.152Z,65.10
2022-12-13T12:32:28.935Z,64.78
2022-12-13T12:35:31.177Z,64.48
2022-12-13T12:38:40.642Z,64.62
2022-12-13T12:42:01.507Z,64.50
2022-12-13T12:44:52.424Z,64.67
2022-12-13T12:48:42.038Z,64.68
2022-12-13T12:50:55.111Z,64.79
2022-12-13T12:53:42.290Z,65.16
2022-12-13T12:56:45.786Z,65.34
2022-12-13T13:00:07.184Z,64.51
2022-12-13T13:02:55.835Z,65.08
2022-12-13T13:05:44.561Z,65.38
2022-12-13T13:08:25.113Z,65.07
2022-12-13T13:11:01.905Z,65.23
2022-12-13T13:13:49.943Z,65.66
2022-12-13T13:16:41.337Z,65.95
2022-12-13T13:19:25.946Z,66.04
2022-12-13T13:22:01.271Z,66.07
2022-12-13T13:24:32.847Z,66.13
2022-12-13T13:27:18.199Z,65.92
2022-12-13T13:29:47.018Z,65.54
2022-12-13T13:32:28.425Z,65.63
2022-12-13T13:35:37.289Z,65.72
2022-12-13T13:38:27.346Z,65.18
2022-12-13T13:40:55.267Z,65.12
2022-12-13T13:43:32.990Z,65.50
2022-12-13T13:46:11.748Z,65.53
2022-12-13T13:49:08.897Z,65.51
2022-12-13T13:55:17.275Z,66.01
2022-12-13T13:58:09.885Z,65.85
2022-12-13T14:01:15.851Z,64.93
2022-12-13T14:04:23.284Z,64.57
2022-12-13T14:07:31.634Z,64.99
2022-12-13T14:10:20.212Z,65.21
2022-12-13T14:13:05.660Z,65.04
2022-12-13T14:16:12.191Z,64.68
2022-12-13T14:19:25.947Z,64.93
2022-12-13T14:22:23.438Z,64.92
2022-12-13T14:25:09.360Z,65.31
2022-12-13T14:27:57.809Z,65.53
2022-12-13T14:30:28.695Z,65.75
2022-12-13T14:32:57.240Z,65.78
2022-12-13T14:35:32.004Z,65.78
2022-12-13T14:38:08.681Z,65.73
2022-12-13T14:40:43.439Z,65.85
2022-12-13T14:43:33.930Z,65.77
2022-12-13T14:46:08.048Z,65.80
2022-12-13T14:48:46.688Z,65.96
2022-12-13T14:51:34.970Z,66.13
2022-12-13T14:54:06.340Z,66.09
2022-12-13T14:56:35.022Z,65.70
2022-12-13T14:59:09.428Z,66.04
2022-12-13T15:01:38.868Z,66.00
2022-12-13T15:04:24.840Z,66.01
2022-12-13T15:07:10.929Z,66.10
2022-12-13T15:09:42.634Z,65.96
2022-12-13T15:12:24.430Z,65.97
2022-12-13T15:14:53.147Z,66.08
2022-12-13T15:17:37.260Z,65.40
2022-12-13T15:20:30.361Z,65.50
2022-12-13T15:23:05.424Z,65.67
2022-12-13T15:25:36.249Z,65.26
2022-12-13T15:28:06.575Z,65.79
2022-12-13T15:30:35.996Z,66.13
2022-12-13T15:33:17.943Z,66.37
2022-12-13T15:35:48.595Z,66.74
2022-12-13T15:38:29.129Z,67.06
2022-12-13T15:40:50.400Z,67.33
2022-12-13T15:43:22.881Z,67.61
2022-12-13T15:45:53.037Z,67.80
2022-12-13T15:48:34.581Z,67.64
2022-12-13T15:51:29.627Z,67.80
2022-12-13T15:54:12.719Z,67.72
2022-12-13T15:57:04.682Z,67.34
2022-12-13T15:59:35.378Z,67.49
2022-12-13T16:02:06.159Z,67.87
2022-12-13T16:04:34.059Z,67.90
2022-12-13T16:07:02.152Z,68.12
2022-12-13T16:09:34.544Z,68.29
2022-12-13T16:12:06.533Z,68.56
2022-12-13T16:14:49.773Z,68.90
2022-12-13T16:17:26.883Z,69.00
2022-12-13T16:20:06.018Z,69.29
2022-12-13T16:22:30.277Z,69.57
2022-12-13T16:25:12.941Z,69.89
2022-12-13T16:27:49.213Z,70.03
2022-12-13T16:30:32.322Z,70.30
2022-12-13T16:33:30.431Z,70.17
2022-12-13T16:35:48.884Z,70.35
2022-12-13T16:38:35.711Z,70.06
2022-12-13T16:41:11.981Z,70.01
2022-12-13T16:44:07.970Z,70.14
2022-12-13T16:47:14.155Z,70.17
2022-12-13T16:49:30.106Z,70.11
2022-12-13T16:52:03.019Z,70.18
2022-12-13T16:54:41.309Z,70.27
2022-12-13T16:57:11.826Z,70.44
2022-12-13T16:59:40.241Z,70.51
2022-12-13T17:02:18.264Z,70.58
2022-12-13T17:04:52.319Z,70.57
2022-12-13T17:07:32.853Z,70.51
2022-12-13T17:10:07.321Z,70.48
2022-12-13T17:12:42.675Z,70.25
2022-12-13T17:15:12.583Z,70.13
2022-12-13T17:17:44.093Z,69.99
2022-12-13T17:20:17.829Z,70.17
2022-12-13T17:22:47.055Z,70.25
2022-12-13T17:25:17.177Z,70.35
2022-12-13T17:27:45.418Z,70.50
2022-12-13T17:30:17.152Z,70.63
2022-12-13T17:32:45.423Z,70.69
2022-12-13T17:35:18.154Z,70.76
2022-12-13T17:37:43.804Z,70.85
2022-12-13T17:40:11.871Z,70.93
2022-12-13T17:42:40.155Z,71.00
2022-12-13T17:45:08.652Z,71.09
2022-12-13T17:47:45.701Z,71.06
2022-12-13T17:50:13.811Z,71.23
2022-12-13T17:52:42.245Z,71.33
2022-12-13T17:55:14.927Z,71.29
2022-12-13T17:57:41.297Z,71.40
2022-12-13T18:00:11.014Z,71.46
2022-12-13T18:02:55.466Z,71.62
2022-12-13T18:05:18.159Z,71.70
2022-12-13T18:07:50.775Z,71.60
2022-12-13T18:10:15.835Z,71.61
2022-12-13T18:12:43.498Z,71.70
2022-12-13T18:15:11.725Z,71.77
2022-12-13T18:18:09.521Z,71.77
2022-12-13T18:20:09.612Z,71.77
2022-12-13T18:22:43.094Z,71.79
2022-12-13T18:25:11.319Z,71.94
2022-12-13T18:27:40.912Z,72.10
2022-12-13T18:30:10.271Z,72.17
2022-12-13T18:32:41.479Z,72.28
2022-12-13T18:35:09.805Z,72.24
2022-12-13T18:37:39.883Z,72.25
2022-12-13T18:40:09.482Z,72.35
2022-12-13T18:42:38.250Z,72.42
2022-12-13T18:45:07.080Z,72.37
2022-12-13T18:47:34.968Z,72.29
2022-12-13T18:50:03.246Z,72.28
2022-12-13T18:52:31.202Z,72.34
2022-12-13T18:54:59.139Z,72.44
2022-12-13T18:57:26.800Z,72.41
2022-12-13T18:59:55.047Z,72.33
2022-12-13T19:02:22.772Z,72.35
2022-12-13T19:04:55.261Z,72.40
2022-12-13T19:07:20.779Z,72.38
2022-12-13T19:09:54.411Z,72.49
2022-12-13T19:12:18.684Z,72.68
2022-12-13T19:14:54.754Z,72.86
2022-12-13T19:17:17.538Z,72.94
2022-12-13T19:19:48.304Z,73.14
2022-12-13T19:22:17.549Z,73.25
2022-12-13T19:24:47.385Z,73.37
2022-12-13T19:27:16.502Z,73.44
2022-12-13T19:29:45.687Z,73.51
2022-12-13T19:32:14.119Z,73.71
2022-12-13T19:34:42.133Z,73.93
2022-12-13T19:37:10.934Z,74.07
2022-12-13T19:39:41.944Z,74.17
2022-12-13T19:42:11.806Z,74.29
2022-12-13T19:44:40.170Z,74.31
2022-12-13T19:47:07.822Z,74.43
2022-12-13T19:49:38.721Z,74.59
2022-12-13T19:52:08.113Z,74.62
2022-12-13T19:54:36.088Z,74.59
2022-12-13T19:57:07.444Z,74.63
2022-12-13T19:59:35.505Z,74.64
2022-12-13T20:02:05.235Z,74.63
2022-12-13T20:04:33.702Z,74.70
2022-12-13T20:07:02.511Z,74.75
2022-12-13T20:09:30.453Z,74.78
2022-12-13T20:11:58.782Z,74.86
2022-12-13T20:14:27.119Z,74.87
2022-12-13T20:16:54.883Z,74.96
2022-12-13T20:19:24.407Z,75.03
2022-12-13T20:21:56.949Z,75.10
2022-12-13T20:24:22.441Z,75.15
2022-12-13T20:26:51.187Z,75.30
2022-12-13T20:29:19.548Z,75.35
2022-12-13T20:31:51.590Z,75.53
2022-12-13T20:34:20.431Z,75.65
2022-12-13T20:36:50.134Z,75.72
2022-12-13T20:39:17.867Z,75.76
2022-12-13T20:41:46.796Z,75.82
2022-12-13T20:44:15.054Z,75.86
2022-12-13T20:46:43.751Z,75.94
2022-12-13T20:49:14.530Z,75.88
2022-12-13T20:51:42.421Z,76.00
2022-12-13T20:54:10.611Z,76.04
2022-12-13T20:56:40.417Z,76.10
2022-12-13T20:59:12.921Z,76.19
2022-12-13T21:01:41.894Z,76.19
2022-12-13T21:04:12.123Z,76.27
2022-12-13T21:06:41.872Z,76.36
2022-12-13T21:09:11.411Z,76.48
2022-12-13T21:11:46.547Z,76.56
2022-12-13T21:14:25.456Z,76.71
2022-12-13T21:16:59.470Z,76.66
2022-12-13T21:19:38.919Z,76.68
2022-12-13T21:22:02.098Z,76.74
2022-12-13T21:24:30.053Z,76.79
2022-12-13T21:27:00.210Z,76.77
2022-12-13T21:29:28.751Z,76.81
2022-12-13T21:31:57.359Z,76.89
2022-12-13T21:34:26.060Z,76.91
2022-12-13T21:36:54.625Z,76.98
2022-12-13T21:39:27.057Z,76.96
2022-12-13T21:41:55.368Z,76.98
2022-12-13T21:44:26.108Z,76.92
2022-12-13T21:49:24.618Z,77.04
2022-12-13T21:51:52.793Z,77.08
2022-12-13T21:54:21.712Z,77.18
2022-12-13T21:57:08.496Z,77.24
2022-12-13T21:59:36.734Z,77.27
2022-12-13T22:02:15.618Z,77.26
2022-12-13T22:04:56.642Z,77.22
2022-12-13T22:07:30.798Z,77.26
2022-12-13T22:10:00.810Z,77.11
2022-12-13T22:12:45.819Z,77.11
2022-12-13T22:15:16.274Z,77.11
2022-12-13T22:17:43.860Z,77.12
2022-12-13T22:20:14.870Z,77.16
2022-12-13T22:22:45.470Z,77.08
2022-12-13T22:25:13.498Z,77.04
2022-12-13T22:27:41.796Z,77.14
2022-12-13T22:30:11.984Z,77.03
2022-12-13T22:32:40.611Z,76.99
2022-12-13T22:35:09.304Z,76.91
2022-12-13T22:37:39.163Z,77.03
2022-12-13T22:40:08.547Z,77.00
2022-12-13T22:42:36.757Z,77.02
2022-12-13T22:45:05.639Z,76.93
2022-12-13T22:47:34.516Z,76.75
2022-12-13T22:50:02.851Z,76.71
2022-12-13T22:52:33.973Z,76.70
2022-12-13T22:55:00.334Z,76.70
2022-12-13T22:57:27.910Z,76.75
2022-12-13T22:59:55.710Z,76.69
2022-12-13T23:02:23.444Z,76.66
2022-12-13T23:04:51.280Z,76.58
2022-12-13T23:07:18.972Z,76.72
2022-12-13T23:09:46.505Z,76.70
2022-12-13T23:12:32.528Z,76.77
2022-12-13T23:15:00.378Z,76.79
2022-12-13T23:17:28.108Z,76.80
2022-12-13T23:19:56.110Z,76.81
2022-12-13T23:22:25.919Z,76.96
2022-12-13T23:24:53.758Z,76.93
2022-12-13T23:27:23.504Z,77.03
2022-12-13T23:29:51.512Z,76.93
2022-12-13T23:32:19.224Z,77.02
2022-12-13T23:34:47.030Z,76.98
2022-12-13T23:37:16.507Z,76.93
2022-12-13T23:39:44.207Z,76.89
2022-12-13T23:42:12.073Z,76.82
2022-12-13T23:44:39.862Z,76.79
2022-12-13T23:47:07.736Z,76.88
2022-12-13T23:49:35.624Z,76.84
2022-12-13T23:52:03.466Z,76.86
2022-12-13T23:54:31.254Z,77.11
2022-12-13T23:56:59.211Z,77.01
2022-12-13T23:59:27.685Z,76.98
